Davenport, New York
Current Conditions -  °F | °C
As of 1:15 PM on Thursday 30 Oct 2014 (Local Time) from KNY0 Reporting Station
Overcast Overcast  
Wind Chill: 45°   Ceiling: 4900
Heat Index: 49°   Visibility: 10mi
Dew Point: 36°   Wind: 9mph
Humidity: 60%   Direction: 270°W
Pressure: 29.98"   Gusts: NA
Location:  42.47°N, 74.84°W
Report Text: KNY0 301715Z AUTO 27008KT 250V310 10SM SCT040 OVC049 10/02 A2998 RMK AO2 T00950021
Loading
Personal Weather Stations






























Interactive Weather Map
Tropical Storm Tracking
New forecast layout! Learn more

10-Day Weather Forecast

Advertisements
Track Severe Weather on mobile